createdAt,value
2019-05-14T00:01:05.186Z,82.28
2019-05-14T00:03:35.673Z,82.28
2019-05-14T00:06:05.975Z,82.59
2019-05-14T00:08:36.543Z,83.12
2019-05-14T00:11:07.080Z,80.86
2019-05-14T00:13:37.257Z,81.70
2019-05-14T00:16:07.458Z,83.88
2019-05-14T00:18:37.636Z,82.65
2019-05-14T00:21:08.182Z,81.61
2019-05-14T00:23:38.355Z,80.19
2019-05-14T00:26:08.908Z,80.46
2019-05-14T00:28:39.198Z,80.96
2019-05-14T00:31:09.402Z,81.15
2019-05-14T00:33:41.934Z,84.91
2019-05-14T00:36:13.990Z,87.17
2019-05-14T00:38:44.151Z,87.17
2019-05-14T00:41:14.637Z,83.51
2019-05-14T00:43:44.801Z,82.86
2019-05-14T00:46:15.003Z,83.71
2019-05-14T00:48:45.512Z,82.33
2019-05-14T00:51:15.717Z,82.29
2019-05-14T00:53:45.902Z,84.25
2019-05-14T00:56:16.092Z,81.80
2019-05-14T00:58:46.271Z,81.37
2019-05-14T01:01:16.473Z,81.30
2019-05-14T01:03:46.652Z,82.68
2019-05-14T01:06:18.327Z,82.14
2019-05-14T01:08:48.835Z,80.89
2019-05-14T01:11:19.039Z,85.38
2019-05-14T01:13:49.217Z,86.86
2019-05-14T01:16:19.806Z,86.60
2019-05-14T01:18:51.332Z,83.51
2019-05-14T01:21:22.052Z,77.70
2019-05-14T01:23:52.280Z,80.33
2019-05-14T01:26:22.475Z,82.22
2019-05-14T01:28:53.068Z,79.12
2019-05-14T01:31:23.277Z,84.67
2019-05-14T01:33:53.458Z,79.16
2019-05-14T01:36:23.656Z,80.21
2019-05-14T01:38:53.827Z,85.96
2019-05-14T01:41:25.009Z,85.00
2019-05-14T01:43:55.184Z,85.00
2019-05-14T01:46:26.064Z,85.34
2019-05-14T01:48:56.229Z,86.50
2019-05-14T01:51:26.546Z,89.84
2019-05-14T01:53:58.075Z,94.86
2019-05-14T01:56:28.268Z,92.81
2019-05-14T01:58:58.834Z,92.48
2019-05-14T02:01:31.344Z,94.64
2019-05-14T02:04:02.334Z,98.10
2019-05-14T02:06:33.045Z,97.45
2019-05-14T02:09:04.656Z,99.28
2019-05-14T02:11:34.951Z,98.39
2019-05-14T02:14:05.127Z,99.72
2019-05-14T02:19:36.552Z,100.00
2019-05-14T02:22:06.818Z,100.00
2019-05-14T02:24:37.105Z,100.00
2019-05-14T02:27:07.707Z,100.00
2019-05-14T02:29:37.899Z,100.00
2019-05-14T02:32:10.404Z,100.00
2019-05-14T02:34:40.525Z,100.00
2019-05-14T02:37:10.906Z,100.00
2019-05-14T02:39:41.415Z,100.00
2019-05-14T02:42:11.882Z,100.00
2019-05-14T02:44:42.333Z,100.00
2019-05-14T02:47:12.530Z,100.00
2019-05-14T02:49:42.698Z,100.00
2019-05-14T02:52:12.919Z,100.00
2019-05-14T02:54:43.113Z,100.00
2019-05-14T02:57:13.368Z,100.00
2019-05-14T02:59:43.572Z,100.00
2019-05-14T03:02:14.847Z,100.00
2019-05-14T03:04:45.070Z,100.00
2019-05-14T03:07:15.343Z,100.00
2019-05-14T03:09:45.540Z,100.00
2019-05-14T03:12:15.714Z,100.00
2019-05-14T03:14:49.476Z,100.00
2019-05-14T03:17:19.854Z,100.00
2019-05-14T03:19:50.188Z,100.00
2019-05-14T03:22:26.326Z,100.00
2019-05-14T03:24:52.312Z,100.00
2019-05-14T03:27:22.528Z,100.00
2019-05-14T03:29:52.999Z,100.00
2019-05-14T03:32:23.427Z,100.00
2019-05-14T03:34:54.398Z,100.00
2019-05-14T03:37:24.899Z,100.00
2019-05-14T03:39:55.092Z,100.00
2019-05-14T03:42:25.647Z,100.00
2019-05-14T03:44:59.368Z,100.00
2019-05-14T03:47:29.900Z,100.00
2019-05-14T03:50:02.526Z,100.00
2019-05-14T03:52:33.574Z,100.00
2019-05-14T03:55:05.003Z,100.00
2019-05-14T03:57:35.998Z,100.00
2019-05-14T04:00:10.265Z,100.00
2019-05-14T04:02:40.872Z,100.00
2019-05-14T04:05:11.369Z,100.00
2019-05-14T04:07:42.914Z,100.00
2019-05-14T04:10:13.705Z,100.00
2019-05-14T04:12:49.186Z,100.00
2019-05-14T04:15:20.496Z,100.00
2019-05-14T04:17:51.348Z,100.00
2019-05-14T04:20:23.429Z,100.00
2019-05-14T04:22:53.813Z,100.00
2019-05-14T04:25:25.460Z,100.00
2019-05-14T04:27:59.703Z,100.00
2019-05-14T04:30:32.410Z,100.00
2019-05-14T04:33:05.154Z,100.00
2019-05-14T04:35:59.979Z,100.00
2019-05-14T04:38:30.220Z,100.00
2019-05-14T04:41:04.608Z,100.00
2019-05-14T04:43:35.461Z,100.00
2019-05-14T04:46:09.981Z,100.00
2019-05-14T04:48:42.990Z,100.00
2019-05-14T04:51:10.136Z,100.00
2019-05-14T04:53:41.409Z,100.00
2019-05-14T04:56:12.264Z,100.00
2019-05-14T04:58:42.516Z,100.00
2019-05-14T05:01:13.131Z,100.00
2019-05-14T05:03:44.581Z,100.00
2019-05-14T05:06:14.956Z,100.00
2019-05-14T05:08:45.623Z,100.00
2019-05-14T05:11:18.144Z,100.00
2019-05-14T05:13:48.899Z,100.00
2019-05-14T05:16:19.604Z,100.00
2019-05-14T05:18:50.051Z,100.00
2019-05-14T05:21:20.344Z,100.00
2019-05-14T05:23:50.720Z,100.00
2019-05-14T05:26:21.209Z,100.00
2019-05-14T05:29:03.731Z,100.00
2019-05-14T05:31:24.919Z,100.00
2019-05-14T05:33:55.380Z,100.00
2019-05-14T05:36:28.843Z,100.00
2019-05-14T05:38:59.956Z,100.00
2019-05-14T05:41:30.406Z,100.00
2019-05-14T05:44:00.785Z,100.00
2019-05-14T05:46:31.623Z,100.00
2019-05-14T05:49:02.481Z,100.00
2019-05-14T05:51:33.303Z,100.00
2019-05-14T05:54:03.645Z,100.00
2019-05-14T05:56:34.606Z,100.00
2019-05-14T05:59:05.019Z,100.00
2019-05-14T06:01:42.829Z,100.00
2019-05-14T06:04:08.726Z,100.00
2019-05-14T06:06:39.277Z,100.00
2019-05-14T06:09:09.696Z,100.00
2019-05-14T06:11:40.125Z,100.00
2019-05-14T06:14:10.726Z,100.00
2019-05-14T06:16:41.442Z,100.00
2019-05-14T06:19:11.709Z,100.00
2019-05-14T06:21:43.089Z,100.00
2019-05-14T06:24:21.497Z,100.00
2019-05-14T06:26:52.072Z,99.56
2019-05-14T06:29:22.565Z,100.00
2019-05-14T06:31:53.448Z,96.59
2019-05-14T06:34:24.073Z,96.59
2019-05-14T06:36:59.138Z,93.80
2019-05-14T06:39:30.024Z,94.14
2019-05-14T06:42:00.540Z,93.41
2019-05-14T06:44:31.275Z,92.62
2019-05-14T06:47:02.078Z,90.16
2019-05-14T06:49:32.360Z,90.16
2019-05-14T06:52:03.131Z,91.26
2019-05-14T06:54:33.448Z,89.80
2019-05-14T06:57:04.081Z,86.87
2019-05-14T06:59:34.500Z,87.21
2019-05-14T07:02:08.486Z,87.42
2019-05-14T07:04:39.423Z,84.78
2019-05-14T07:07:10.539Z,82.56
2019-05-14T07:09:41.264Z,82.84
2019-05-14T07:12:11.481Z,81.08
2019-05-14T07:14:41.956Z,78.96
2019-05-14T07:17:12.179Z,74.96
2019-05-14T07:19:42.405Z,72.98
2019-05-14T07:22:12.623Z,77.56
2019-05-14T07:24:42.816Z,72.99
2019-05-14T07:27:13.366Z,59.59
2019-05-14T07:29:44.111Z,57.18
2019-05-14T07:32:14.331Z,54.90
2019-05-14T07:34:44.991Z,51.41
2019-05-14T07:37:18.051Z,52.02
2019-05-14T07:39:48.957Z,50.90
2019-05-14T07:42:19.712Z,49.81
2019-05-14T07:44:49.982Z,47.99
2019-05-14T07:47:20.881Z,48.10
2019-05-14T07:49:51.458Z,46.76
2019-05-14T07:52:21.683Z,47.37
2019-05-14T07:54:52.000Z,46.41
2019-05-14T07:57:22.265Z,44.08
2019-05-14T07:59:52.675Z,42.43
2019-05-14T08:02:22.905Z,43.10
2019-05-14T08:04:53.432Z,42.67
2019-05-14T08:07:23.761Z,42.50
2019-05-14T08:09:54.050Z,43.02
2019-05-14T08:12:24.339Z,42.42
2019-05-14T08:15:13.115Z,42.63
2019-05-14T08:17:28.113Z,40.90
2019-05-14T08:19:58.526Z,41.73
2019-05-14T08:22:29.277Z,40.22
2019-05-14T08:25:00.710Z,39.23
2019-05-14T08:27:32.196Z,39.89
2019-05-14T08:30:02.831Z,38.30
2019-05-14T08:32:33.651Z,37.12
2019-05-14T08:35:04.157Z,38.03
2019-05-14T08:37:34.461Z,37.81
2019-05-14T08:40:05.560Z,37.68
2019-05-14T08:42:37.887Z,38.00
2019-05-14T08:45:12.286Z,37.16
2019-05-14T08:47:40.095Z,37.01
2019-05-14T08:50:11.083Z,36.56
2019-05-14T08:52:41.699Z,34.56
2019-05-14T08:55:14.091Z,34.58
2019-05-14T08:57:44.274Z,33.74
2019-05-14T09:00:18.190Z,33.69
2019-05-14T09:02:48.807Z,33.04
2019-05-14T09:05:19.143Z,33.05
2019-05-14T09:07:49.815Z,32.35
2019-05-14T09:10:21.923Z,32.19
2019-05-14T09:12:53.800Z,31.92
2019-05-14T09:15:24.013Z,33.25
2019-05-14T09:17:54.565Z,32.54
2019-05-14T09:20:24.861Z,31.67
2019-05-14T09:22:55.110Z,31.70
2019-05-14T09:25:25.349Z,30.66
2019-05-14T09:27:58.428Z,30.42
2019-05-14T09:30:28.965Z,30.42
2019-05-14T09:32:59.866Z,28.81
2019-05-14T09:35:30.160Z,28.88
2019-05-14T09:38:00.451Z,30.15
2019-05-14T09:40:31.767Z,28.67
2019-05-14T09:43:02.015Z,27.52
2019-05-14T09:45:32.380Z,26.43
2019-05-14T09:48:03.268Z,26.74
2019-05-14T09:50:33.501Z,27.58
2019-05-14T09:53:03.771Z,25.09
2019-05-14T09:55:34.352Z,26.46
2019-05-14T09:58:05.084Z,26.90
2019-05-14T10:00:35.725Z,26.36
2019-05-14T10:03:09.591Z,26.00
2019-05-14T10:05:38.525Z,26.33
2019-05-14T10:08:09.104Z,24.96
2019-05-14T10:10:40.058Z,24.47
2019-05-14T10:13:10.473Z,25.58
2019-05-14T10:15:40.798Z,23.81
2019-05-14T10:18:12.372Z,24.14
2019-05-14T10:20:45.886Z,25.38
2019-05-14T10:23:14.953Z,24.05
2019-05-14T10:25:45.253Z,24.91
2019-05-14T10:28:15.934Z,24.15
2019-05-14T10:30:48.942Z,25.14
2019-05-14T10:33:18.301Z,23.20
2019-05-14T10:35:48.661Z,24.93
2019-05-14T10:38:19.203Z,24.33
2019-05-14T10:40:50.753Z,22.58
2019-05-14T10:43:21.030Z,22.19
2019-05-14T10:45:51.813Z,22.81
2019-05-14T10:48:22.593Z,22.86
2019-05-14T10:51:02.629Z,22.01
2019-05-14T10:53:28.681Z,22.47
2019-05-14T10:55:58.389Z,21.28
2019-05-14T10:58:29.219Z,21.85
2019-05-14T11:00:59.816Z,21.06
2019-05-14T11:03:30.424Z,20.77
2019-05-14T11:06:00.852Z,20.91
2019-05-14T11:08:31.088Z,21.45
2019-05-14T11:11:04.622Z,19.94
2019-05-14T11:13:33.574Z,21.66
2019-05-14T11:16:03.837Z,20.97
2019-05-14T11:18:34.086Z,21.72
2019-05-14T11:21:18.781Z,21.33
2019-05-14T11:23:38.701Z,20.15
2019-05-14T11:26:09.310Z,19.44
2019-05-14T11:28:39.751Z,19.41
2019-05-14T11:31:10.333Z,19.25
2019-05-14T11:33:42.570Z,18.51
2019-05-14T11:36:12.843Z,19.15
2019-05-14T11:38:43.119Z,19.48
2019-05-14T11:41:14.426Z,18.99
2019-05-14T11:43:44.631Z,20.53
2019-05-14T11:46:26.172Z,18.31
2019-05-14T11:48:49.855Z,17.35
2019-05-14T11:51:45.779Z,17.34
2019-05-14T11:53:52.205Z,16.80
2019-05-14T11:56:23.444Z,16.46
2019-05-14T11:58:53.753Z,17.61
2019-05-14T12:01:24.501Z,19.56
2019-05-14T12:03:54.807Z,19.69
2019-05-14T12:06:25.051Z,18.44
2019-05-14T12:08:58.131Z,18.55
2019-05-14T12:11:29.076Z,17.21
2019-05-14T12:13:59.988Z,16.64
2019-05-14T12:16:30.484Z,16.65
2019-05-14T12:19:01.025Z,17.71
2019-05-14T12:21:31.662Z,16.84
2019-05-14T12:24:05.230Z,19.49
2019-05-14T12:26:34.173Z,18.39
2019-05-14T12:29:04.375Z,17.25
2019-05-14T12:31:34.693Z,19.05
2019-05-14T12:34:04.966Z,17.79
2019-05-14T12:36:35.228Z,17.64
2019-05-14T12:39:09.637Z,16.93
2019-05-14T12:41:40.054Z,17.26
2019-05-14T12:44:10.339Z,16.59
2019-05-14T12:46:40.604Z,16.64
2019-05-14T12:49:11.725Z,16.09
2019-05-14T12:51:42.888Z,16.22
2019-05-14T12:54:13.319Z,16.11
2019-05-14T12:56:44.030Z,15.55
2019-05-14T12:59:14.387Z,15.00
2019-05-14T13:01:45.022Z,14.67
2019-05-14T13:04:15.317Z,14.60
2019-05-14T13:06:48.195Z,14.99
2019-05-14T13:09:21.379Z,14.81
2019-05-14T13:11:49.732Z,14.83
2019-05-14T13:14:19.975Z,15.85
2019-05-14T13:16:50.239Z,15.60
2019-05-14T13:19:20.451Z,13.27
2019-05-14T13:22:08.751Z,13.45
2019-05-14T13:24:22.683Z,15.66
2019-05-14T13:26:52.973Z,16.01
2019-05-14T13:29:23.180Z,15.26
2019-05-14T13:31:53.417Z,14.42
2019-05-14T13:34:23.686Z,13.08
2019-05-14T13:36:53.971Z,13.17
2019-05-14T13:39:24.300Z,13.53
2019-05-14T13:41:54.614Z,13.68
2019-05-14T13:44:25.334Z,14.04
2019-05-14T13:46:55.576Z,14.71
2019-05-14T13:49:25.836Z,13.94
2019-05-14T13:51:56.132Z,14.68
2019-05-14T13:54:31.633Z,12.43
2019-05-14T13:56:58.957Z,13.28
2019-05-14T13:59:29.208Z,12.98
2019-05-14T14:01:59.497Z,12.46
2019-05-14T14:04:29.722Z,13.13
2019-05-14T14:07:00.478Z,16.59
2019-05-14T14:09:31.594Z,15.15
2019-05-14T14:12:01.993Z,15.61
2019-05-14T14:14:32.401Z,13.12
2019-05-14T14:17:03.453Z,14.95
2019-05-14T14:19:33.835Z,17.28
2019-05-14T14:22:04.562Z,14.10
2019-05-14T14:24:34.880Z,15.20
2019-05-14T14:27:05.209Z,16.18
2019-05-14T14:29:35.597Z,13.31
2019-05-14T14:32:11.120Z,12.00
2019-05-14T14:34:41.312Z,13.47
2019-05-14T14:37:10.207Z,11.40
2019-05-14T14:39:40.465Z,11.47
2019-05-14T14:42:10.788Z,14.68
2019-05-14T14:44:41.108Z,18.59
2019-05-14T14:47:12.450Z,20.03
2019-05-14T14:49:44.042Z,19.96
2019-05-14T14:52:14.608Z,21.52
2019-05-14T14:54:45.284Z,20.07
2019-05-14T14:57:19.525Z,19.93
2019-05-14T14:59:48.668Z,19.09
2019-05-14T15:02:19.881Z,16.39
2019-05-14T15:04:50.462Z,15.52
2019-05-14T15:07:20.852Z,13.25
2019-05-14T15:09:51.240Z,14.78
2019-05-14T15:12:21.519Z,16.48
2019-05-14T15:14:51.831Z,14.87
2019-05-14T15:17:22.086Z,13.40
2019-05-14T15:19:52.643Z,15.75
2019-05-14T15:22:22.937Z,18.32
2019-05-14T15:24:53.248Z,20.52
2019-05-14T15:27:24.593Z,21.93
2019-05-14T15:29:54.830Z,22.99
2019-05-14T15:32:25.515Z,23.69
2019-05-14T15:34:55.879Z,23.55
2019-05-14T15:37:28.651Z,23.36
2019-05-14T15:39:58.339Z,22.83
2019-05-14T15:42:28.808Z,23.45
2019-05-14T15:44:59.945Z,22.30
2019-05-14T15:47:30.762Z,22.06
2019-05-14T15:50:01.175Z,22.59
2019-05-14T15:52:31.543Z,22.72
2019-05-14T15:55:01.964Z,22.04
2019-05-14T15:57:32.330Z,21.36
2019-05-14T16:00:03.075Z,19.69
2019-05-14T16:02:33.596Z,16.58
2019-05-14T16:05:04.062Z,14.33
2019-05-14T16:07:39.070Z,13.47
2019-05-14T16:10:09.763Z,13.68
2019-05-14T16:12:40.373Z,13.09
2019-05-14T16:15:11.197Z,14.88
2019-05-14T16:17:50.692Z,17.44
2019-05-14T16:20:14.045Z,19.95
2019-05-14T16:22:44.449Z,21.19
2019-05-14T16:25:15.070Z,22.03
2019-05-14T16:27:45.326Z,20.09
2019-05-14T16:30:15.981Z,21.71
2019-05-14T16:32:48.491Z,23.17
2019-05-14T16:35:21.318Z,24.04
2019-05-14T16:37:50.819Z,25.51
2019-05-14T16:40:21.081Z,25.51
2019-05-14T16:42:51.333Z,25.45
2019-05-14T16:45:21.646Z,25.29
2019-05-14T16:47:52.135Z,26.77
2019-05-14T16:50:22.469Z,23.05
2019-05-14T16:52:53.055Z,19.95
2019-05-14T16:55:27.237Z,18.33
2019-05-14T16:57:55.428Z,15.87
2019-05-14T17:00:25.843Z,19.60
2019-05-14T17:02:56.130Z,19.60
2019-05-14T17:05:29.939Z,20.85
2019-05-14T17:07:58.998Z,22.63
2019-05-14T17:10:29.265Z,24.15
2019-05-14T17:13:01.826Z,25.36
2019-05-14T17:15:33.274Z,25.93
2019-05-14T17:18:04.526Z,26.96
2019-05-14T17:20:34.966Z,27.45
2019-05-14T17:23:05.892Z,28.08
2019-05-14T17:25:36.104Z,28.94
2019-05-14T17:28:08.515Z,28.85
2019-05-14T17:30:38.918Z,29.81
2019-05-14T17:33:09.737Z,29.16
2019-05-14T17:35:40.319Z,28.02
2019-05-14T17:38:10.716Z,24.04
2019-05-14T17:40:41.061Z,21.28
2019-05-14T17:43:11.876Z,20.36
2019-05-14T17:45:42.311Z,21.55
2019-05-14T17:48:13.727Z,24.23
2019-05-14T17:50:44.855Z,24.23
2019-05-14T17:53:15.189Z,25.26
2019-05-14T17:55:50.061Z,27.33
2019-05-14T17:58:18.914Z,29.10
2019-05-14T18:00:49.563Z,29.18
2019-05-14T18:03:19.788Z,29.02
2019-05-14T18:05:50.396Z,29.08
2019-05-14T18:08:20.729Z,29.56
2019-05-14T18:10:51.360Z,30.33
2019-05-14T18:13:21.926Z,31.43
2019-05-14T18:15:52.532Z,31.97
2019-05-14T18:18:22.712Z,31.38
2019-05-14T18:20:53.000Z,32.13
2019-05-14T18:23:24.390Z,33.44
2019-05-14T18:26:04.999Z,33.19
2019-05-14T18:28:28.661Z,32.99
2019-05-14T18:30:58.940Z,33.57
2019-05-14T18:33:31.134Z,33.36
2019-05-14T18:36:01.208Z,35.89
2019-05-14T18:38:31.514Z,34.37
2019-05-14T18:41:01.855Z,34.43
2019-05-14T18:43:32.102Z,35.46
2019-05-14T18:46:02.406Z,35.46
2019-05-14T18:48:32.705Z,35.31
2019-05-14T18:51:03.236Z,35.95
2019-05-14T18:53:34.449Z,36.39
2019-05-14T18:56:17.418Z,36.88
2019-05-14T18:58:38.706Z,36.92
2019-05-14T19:01:08.808Z,37.58
2019-05-14T19:03:39.907Z,37.38
2019-05-14T19:06:10.286Z,38.37
2019-05-14T19:08:40.635Z,37.71
2019-05-14T19:11:10.974Z,37.76
2019-05-14T19:13:41.272Z,39.50
2019-05-14T19:16:11.499Z,39.73
2019-05-14T19:18:41.856Z,39.29
2019-05-14T19:21:12.335Z,39.56
2019-05-14T19:23:45.228Z,38.59
2019-05-14T19:26:14.787Z,38.86
2019-05-14T19:28:45.150Z,39.19
2019-05-14T19:31:15.341Z,38.64
2019-05-14T19:33:45.626Z,37.86
2019-05-14T19:36:16.116Z,38.37
2019-05-14T19:38:48.175Z,38.64
2019-05-14T19:41:20.977Z,39.47
2019-05-14T19:43:50.302Z,38.71
2019-05-14T19:46:20.596Z,38.41
2019-05-14T19:48:50.853Z,39.33
2019-05-14T19:51:21.142Z,39.44
2019-05-14T19:53:52.596Z,39.88
2019-05-14T19:56:23.043Z,40.53
2019-05-14T19:58:53.805Z,39.77
2019-05-14T20:01:24.044Z,39.27
2019-05-14T20:03:54.663Z,38.89
2019-05-14T20:06:24.917Z,38.77
2019-05-14T20:08:55.302Z,39.62
2019-05-14T20:11:25.961Z,40.44
2019-05-14T20:13:59.028Z,41.05
2019-05-14T20:16:29.282Z,40.00
2019-05-14T20:18:59.590Z,40.71
2019-05-14T20:21:31.363Z,41.38
2019-05-14T20:24:01.951Z,42.55
2019-05-14T20:26:32.666Z,42.30
2019-05-14T20:29:03.533Z,42.09
2019-05-14T20:31:33.901Z,41.59
2019-05-14T20:34:08.329Z,41.96
2019-05-14T20:36:39.140Z,43.22
2019-05-14T20:39:10.570Z,42.88
2019-05-14T20:41:41.062Z,43.59
2019-05-14T20:44:11.386Z,42.72
2019-05-14T20:46:41.714Z,42.93
2019-05-14T20:49:12.065Z,43.29
2019-05-14T20:51:42.838Z,42.86
2019-05-14T20:54:13.157Z,44.51
2019-05-14T20:56:43.604Z,43.91
2019-05-14T20:59:13.919Z,44.01
2019-05-14T21:01:44.158Z,44.64
2019-05-14T21:04:14.444Z,44.24
2019-05-14T21:06:44.674Z,45.37
2019-05-14T21:09:15.056Z,45.63
2019-05-14T21:11:45.335Z,45.06
2019-05-14T21:14:15.644Z,45.28
2019-05-14T21:16:48.667Z,45.93
2019-05-14T21:19:19.250Z,45.90
2019-05-14T21:21:49.623Z,46.02
2019-05-14T21:24:21.873Z,46.14
2019-05-14T21:26:51.924Z,46.49
2019-05-14T21:29:23.909Z,45.59
2019-05-14T21:31:54.467Z,46.25
2019-05-14T21:34:24.804Z,46.49
2019-05-14T21:36:55.475Z,45.39
2019-05-14T21:39:25.774Z,45.58
2019-05-14T21:41:58.450Z,45.47
2019-05-14T21:44:28.490Z,44.99
2019-05-14T21:46:59.001Z,44.05
2019-05-14T21:49:30.016Z,44.38
2019-05-14T21:52:00.319Z,44.66
2019-05-14T21:54:31.144Z,43.56
2019-05-14T21:57:01.438Z,43.65
2019-05-14T21:59:31.749Z,44.37
2019-05-14T22:02:02.753Z,43.67
2019-05-14T22:04:33.243Z,44.21
2019-05-14T22:07:03.926Z,44.93
2019-05-14T22:09:34.515Z,44.48
2019-05-14T22:12:04.887Z,44.45
2019-05-14T22:14:37.946Z,44.34
2019-05-14T22:17:09.509Z,45.28
2019-05-14T22:19:39.817Z,45.21
2019-05-14T22:22:10.701Z,45.55
2019-05-14T22:24:41.461Z,45.15
2019-05-14T22:27:14.882Z,45.09
2019-05-14T22:29:45.182Z,45.36
2019-05-14T22:32:15.577Z,45.88
2019-05-14T22:34:48.650Z,46.20
2019-05-14T22:37:20.195Z,46.35
2019-05-14T22:39:50.884Z,46.09
2019-05-14T22:42:28.241Z,46.20
2019-05-14T22:44:58.723Z,46.45
2019-05-14T22:47:29.018Z,47.04
2019-05-14T22:49:59.704Z,46.34
2019-05-14T22:52:31.263Z,46.68
2019-05-14T22:55:03.633Z,47.35
2019-05-14T22:57:34.488Z,47.58
2019-05-14T23:00:05.139Z,48.75
2019-05-14T23:02:38.178Z,50.13
2019-05-14T23:05:08.840Z,50.53
2019-05-14T23:07:39.269Z,50.14
2019-05-14T23:10:10.337Z,50.11
2019-05-14T23:12:40.584Z,49.77
2019-05-14T23:15:10.964Z,49.61
2019-05-14T23:17:41.272Z,50.91
2019-05-14T23:20:11.930Z,51.49
2019-05-14T23:22:42.322Z,51.74
2019-05-14T23:25:12.974Z,52.13
2019-05-14T23:27:43.356Z,52.00
2019-05-14T23:30:13.838Z,52.22
2019-05-14T23:32:44.879Z,51.72
2019-05-14T23:35:15.651Z,52.31
2019-05-14T23:37:48.934Z,53.34
2019-05-14T23:40:19.367Z,52.96
2019-05-14T23:42:49.863Z,52.61
2019-05-14T23:45:21.622Z,53.86
2019-05-14T23:47:52.232Z,54.04
2019-05-14T23:50:22.991Z,54.83
2019-05-14T23:52:53.498Z,54.69
2019-05-14T23:55:24.265Z,56.47
2019-05-14T23:57:55.999Z,54.98
